createdAt,value
2023-11-30T00:00:52.730Z,-4.60
2023-11-30T00:03:19.674Z,-4.60
2023-11-30T00:05:46.609Z,-4.70
2023-11-30T00:08:13.655Z,-4.70
2023-11-30T00:10:40.526Z,-4.70
2023-11-30T00:13:07.423Z,-4.80
2023-11-30T00:15:34.350Z,-4.80
2023-11-30T00:18:01.356Z,-4.80
2023-11-30T00:20:28.246Z,-4.80
2023-11-30T00:22:55.095Z,-4.90
2023-11-30T00:25:21.998Z,-4.80
2023-11-30T00:27:48.986Z,-4.90
2023-11-30T00:30:16.070Z,-4.90
2023-11-30T00:32:43.009Z,-4.90
2023-11-30T00:35:09.916Z,-4.90
2023-11-30T00:37:36.786Z,-5.00
2023-11-30T00:40:04.017Z,-5.00
2023-11-30T00:42:31.133Z,-5.00
2023-11-30T00:44:58.232Z,-5.00
2023-11-30T00:47:25.120Z,-4.70
2023-11-30T00:49:52.009Z,-5.00
2023-11-30T00:52:18.873Z,-5.10
2023-11-30T00:54:45.752Z,-5.10
2023-11-30T00:57:12.746Z,-5.10
2023-11-30T00:59:39.620Z,-5.10
2023-11-30T01:02:06.518Z,-5.10
2023-11-30T01:04:33.418Z,-5.10
2023-11-30T01:07:00.366Z,-5.10
2023-11-30T01:09:27.260Z,-5.20
2023-11-30T01:11:54.231Z,-5.20
2023-11-30T01:14:21.137Z,-5.20
2023-11-30T01:16:47.970Z,-5.30
2023-11-30T01:19:14.918Z,-5.30
2023-11-30T01:21:42.611Z,-5.30
2023-11-30T01:24:09.537Z,-5.30
2023-11-30T01:26:36.450Z,-5.30
2023-11-30T01:29:03.396Z,-5.30
2023-11-30T01:31:30.308Z,-5.40
2023-11-30T01:33:57.339Z,-5.40
2023-11-30T01:36:24.251Z,-5.40
2023-11-30T01:38:51.226Z,-5.40
2023-11-30T01:41:18.137Z,-5.40
2023-11-30T01:43:44.985Z,-5.40
2023-11-30T01:46:12.062Z,-5.40
2023-11-30T01:48:39.243Z,-5.40
2023-11-30T01:51:07.679Z,-5.40
2023-11-30T01:53:37.031Z,-5.40
2023-11-30T01:56:05.071Z,-5.50
2023-11-30T01:58:32.225Z,-5.60
2023-11-30T02:00:59.856Z,-5.60
2023-11-30T02:03:27.998Z,-5.60
2023-11-30T02:05:55.005Z,-5.70
2023-11-30T02:08:21.952Z,-5.80
2023-11-30T02:10:48.850Z,-5.80
2023-11-30T02:13:15.728Z,-5.70
2023-11-30T02:15:42.811Z,-5.60
2023-11-30T02:18:09.718Z,-5.60
2023-11-30T02:20:36.664Z,-5.60
2023-11-30T02:23:03.620Z,-5.60
2023-11-30T02:25:30.549Z,-5.70
2023-11-30T02:27:57.396Z,-5.60
2023-11-30T02:30:24.280Z,-5.70
2023-11-30T02:32:51.252Z,-5.70
2023-11-30T02:35:18.231Z,-5.70
2023-11-30T02:37:45.101Z,-5.70
2023-11-30T02:40:12.435Z,-5.70
2023-11-30T02:42:39.344Z,-5.70
2023-11-30T02:45:06.683Z,-5.80
2023-11-30T02:47:33.593Z,-5.80
2023-11-30T02:50:00.495Z,-5.80
2023-11-30T02:52:27.336Z,-5.20
2023-11-30T02:54:54.227Z,-5.70
2023-11-30T02:57:21.146Z,-5.80
2023-11-30T02:59:48.128Z,-5.70
2023-11-30T03:02:15.122Z,-5.80
2023-11-30T03:04:42.020Z,-5.70
2023-11-30T03:07:08.902Z,-5.70
2023-11-30T03:09:35.861Z,-5.70
2023-11-30T03:12:02.804Z,-5.70
2023-11-30T03:14:29.704Z,-5.70
2023-11-30T03:16:57.717Z,-5.80
2023-11-30T03:19:24.639Z,-5.80
2023-11-30T03:21:52.261Z,-5.80
2023-11-30T03:24:20.356Z,-5.90
2023-11-30T03:26:47.317Z,-5.90
2023-11-30T03:29:14.234Z,-6.00
2023-11-30T03:31:41.393Z,-6.10
2023-11-30T03:34:08.732Z,-6.10
2023-11-30T03:36:35.748Z,-6.20
2023-11-30T03:39:02.722Z,-6.10
2023-11-30T03:41:29.658Z,-6.00
2023-11-30T03:43:56.613Z,-6.00
2023-11-30T03:46:24.522Z,-6.00
2023-11-30T03:48:52.997Z,-6.10
2023-11-30T03:51:19.992Z,-6.20
2023-11-30T03:53:46.923Z,-6.40
2023-11-30T03:56:14.043Z,-6.40
2023-11-30T03:58:41.159Z,-6.50
2023-11-30T04:01:08.659Z,-6.50
2023-11-30T04:03:35.613Z,-6.60
2023-11-30T04:06:02.586Z,-6.70
2023-11-30T04:08:29.509Z,-6.60
2023-11-30T04:10:56.381Z,-6.80
2023-11-30T04:13:23.253Z,-6.70
2023-11-30T04:15:50.153Z,-6.80
2023-11-30T04:18:17.127Z,-6.80
2023-11-30T04:20:44.041Z,-6.80
2023-11-30T04:23:10.921Z,-6.90
2023-11-30T04:25:37.799Z,-6.90
2023-11-30T04:28:04.940Z,-6.90
2023-11-30T04:30:31.913Z,-6.80
2023-11-30T04:32:58.886Z,-6.80
2023-11-30T04:35:25.890Z,-6.90
2023-11-30T04:37:52.808Z,-6.90
2023-11-30T04:40:19.775Z,-6.90
2023-11-30T04:42:46.784Z,-7.00
2023-11-30T04:45:13.731Z,-7.10
2023-11-30T04:47:40.734Z,-7.10
2023-11-30T04:50:08.329Z,-7.10
2023-11-30T04:52:35.232Z,-7.20
2023-11-30T04:55:02.145Z,-7.20
2023-11-30T04:57:29.119Z,-7.20
2023-11-30T04:59:56.102Z,-7.30
2023-11-30T05:02:23.158Z,-7.30
2023-11-30T05:04:50.244Z,-7.30
2023-11-30T05:07:17.202Z,-7.20
2023-11-30T05:09:44.080Z,-7.20
2023-11-30T05:12:11.024Z,-7.30
2023-11-30T05:14:37.928Z,-7.30
2023-11-30T05:17:05.109Z,-7.10
2023-11-30T05:19:32.007Z,-7.20
2023-11-30T05:21:58.885Z,-7.30
2023-11-30T05:24:25.876Z,-7.30
2023-11-30T05:26:52.796Z,-7.30
2023-11-30T05:29:19.732Z,-7.30
2023-11-30T05:31:46.612Z,-7.30
2023-11-30T05:34:13.506Z,-7.30
2023-11-30T05:36:40.396Z,-7.10
2023-11-30T05:39:07.295Z,-7.00
2023-11-30T05:41:34.216Z,-7.10
2023-11-30T05:44:01.145Z,-7.20
2023-11-30T05:46:28.106Z,-7.20
2023-11-30T05:48:55.124Z,-7.20
2023-11-30T05:51:22.208Z,-7.00
2023-11-30T05:53:49.114Z,-6.80
2023-11-30T05:56:16.009Z,-6.90
2023-11-30T05:58:42.869Z,-6.80
2023-11-30T06:01:09.768Z,-6.90
2023-11-30T06:03:36.842Z,-7.00
2023-11-30T06:06:04.120Z,-7.00
2023-11-30T06:08:31.042Z,-7.00
2023-11-30T06:10:57.980Z,-6.80
2023-11-30T06:13:24.935Z,-6.70
2023-11-30T06:15:51.830Z,-6.50
2023-11-30T06:18:18.795Z,-6.50
2023-11-30T06:20:45.698Z,-6.40
2023-11-30T06:23:12.602Z,-6.40
2023-11-30T06:25:39.487Z,-6.30
2023-11-30T06:28:06.361Z,-6.40
2023-11-30T06:30:33.314Z,-6.40
2023-11-30T06:33:00.313Z,-6.30
2023-11-30T06:35:27.417Z,-6.20
2023-11-30T06:37:54.350Z,-6.30
2023-11-30T06:40:21.261Z,-6.40
2023-11-30T06:42:48.130Z,-6.40
2023-11-30T06:45:15.085Z,-6.60
2023-11-30T06:47:42.069Z,-6.70
2023-11-30T06:50:09.457Z,-6.60
2023-11-30T06:52:36.352Z,-6.70
2023-11-30T06:55:03.342Z,-6.70
2023-11-30T06:57:30.694Z,-6.80
2023-11-30T06:59:57.669Z,-6.80
2023-11-30T07:02:24.515Z,-6.90
2023-11-30T07:04:51.488Z,-6.90
2023-11-30T07:07:27.927Z,-7.00
2023-11-30T07:10:01.240Z,-7.00
2023-11-30T07:12:28.318Z,-7.10
2023-11-30T07:14:55.322Z,-7.20
2023-11-30T07:17:22.192Z,-7.20
2023-11-30T07:19:49.172Z,-7.10
2023-11-30T07:22:16.016Z,-7.00
2023-11-30T07:24:47.691Z,-7.00
2023-11-30T07:27:21.530Z,-6.90
2023-11-30T07:29:48.658Z,-6.80
2023-11-30T07:32:16.444Z,-6.80
2023-11-30T07:34:44.029Z,-6.80
2023-11-30T07:37:10.978Z,-6.80
2023-11-30T07:39:38.051Z,-6.80
2023-11-30T07:42:07.605Z,-6.90
2023-11-30T07:44:34.922Z,-6.90
2023-11-30T07:47:02.070Z,-6.70
2023-11-30T07:49:28.913Z,-6.60
2023-11-30T07:51:55.774Z,-6.40
2023-11-30T07:54:22.642Z,-6.40
2023-11-30T07:56:49.527Z,-6.10
2023-11-30T07:59:16.394Z,-6.00
2023-11-30T08:01:43.300Z,-6.00
2023-11-30T08:04:10.377Z,-6.00
2023-11-30T08:06:37.451Z,-5.80
2023-11-30T08:09:04.426Z,-4.30
2023-11-30T08:11:31.359Z,-3.40
2023-11-30T08:13:58.283Z,-2.80
2023-11-30T08:16:25.181Z,-2.40
2023-11-30T08:18:52.203Z,-2.00
2023-11-30T08:21:19.111Z,-2.00
2023-11-30T08:23:45.951Z,-1.80
2023-11-30T08:26:12.830Z,-1.60
2023-11-30T08:28:39.814Z,-1.60
2023-11-30T08:31:07.060Z,-1.40
2023-11-30T08:33:33.982Z,-1.50
2023-11-30T08:36:00.920Z,-1.70
2023-11-30T08:38:28.058Z,-1.50
2023-11-30T08:40:54.950Z,-1.80
2023-11-30T08:43:21.798Z,-1.80
2023-11-30T08:45:48.744Z,-1.70
2023-11-30T08:48:15.772Z,-1.60
2023-11-30T08:50:42.805Z,-1.60
2023-11-30T08:53:09.667Z,-1.30
2023-11-30T08:55:36.636Z,-1.10
2023-11-30T08:58:03.500Z,-1.20
2023-11-30T09:00:30.524Z,-0.90
2023-11-30T09:02:57.424Z,-0.70
2023-11-30T09:05:24.797Z,-0.90
2023-11-30T09:07:51.966Z,-1.00
2023-11-30T09:10:18.885Z,-0.90
2023-11-30T09:12:46.222Z,-0.60
2023-11-30T09:15:13.241Z,-0.60
2023-11-30T09:17:40.919Z,-0.60
2023-11-30T09:20:08.441Z,-0.40
2023-11-30T09:22:38.280Z,-0.40
2023-11-30T09:25:06.273Z,-0.50
2023-11-30T09:27:33.202Z,-0.30
2023-11-30T09:30:00.068Z,-0.20
2023-11-30T09:32:26.943Z,0.00
2023-11-30T09:34:53.782Z,0.30
2023-11-30T09:37:20.637Z,0.50
2023-11-30T09:39:47.568Z,0.70
2023-11-30T09:42:14.481Z,0.80
2023-11-30T09:44:41.396Z,1.00
2023-11-30T09:47:08.345Z,1.30
2023-11-30T09:49:35.305Z,1.60
2023-11-30T09:52:02.394Z,2.10
2023-11-30T09:54:29.286Z,2.10
2023-11-30T09:56:56.193Z,2.50
2023-11-30T09:59:23.130Z,2.80
2023-11-30T10:01:50.039Z,3.20
2023-11-30T10:04:18.207Z,3.50
2023-11-30T10:06:46.728Z,3.70
2023-11-30T10:09:14.108Z,3.90
2023-11-30T10:11:41.865Z,4.30
2023-11-30T10:14:09.432Z,4.30
2023-11-30T10:16:37.091Z,4.30
2023-11-30T10:19:07.991Z,4.60
2023-11-30T10:21:35.594Z,4.80
2023-11-30T10:24:02.491Z,5.30
2023-11-30T10:26:32.978Z,5.40
2023-11-30T10:29:04.802Z,5.20
2023-11-30T10:31:34.600Z,5.50
2023-11-30T10:34:11.133Z,5.70
2023-11-30T10:36:40.085Z,6.00
2023-11-30T10:39:08.940Z,6.00
2023-11-30T10:41:46.372Z,6.10
2023-11-30T10:44:14.622Z,6.30
2023-11-30T10:46:43.498Z,6.30
2023-11-30T10:49:10.760Z,6.10
2023-11-30T10:51:38.593Z,6.50
2023-11-30T10:54:18.423Z,6.50
2023-11-30T10:56:45.498Z,6.90
2023-11-30T10:59:16.150Z,6.90
2023-11-30T11:01:49.353Z,7.20
2023-11-30T11:04:17.103Z,7.40
2023-11-30T11:06:44.148Z,6.90
2023-11-30T11:09:11.409Z,7.10
2023-11-30T11:11:41.538Z,6.90
2023-11-30T11:14:08.451Z,7.30
2023-11-30T11:16:39.734Z,7.20
2023-11-30T11:19:08.709Z,7.60
2023-11-30T11:21:37.130Z,7.50
2023-11-30T11:24:08.289Z,7.50
2023-11-30T11:27:01.325Z,7.70
2023-11-30T11:29:34.782Z,7.70
2023-11-30T11:32:07.080Z,7.60
2023-11-30T11:34:33.930Z,7.60
2023-11-30T11:37:00.787Z,7.70
2023-11-30T11:39:27.670Z,7.70
2023-11-30T11:41:54.518Z,7.50
2023-11-30T11:44:24.179Z,7.20
2023-11-30T11:46:51.921Z,7.20
2023-11-30T11:49:18.849Z,7.60
2023-11-30T11:51:46.856Z,7.50
2023-11-30T11:54:21.611Z,7.60
2023-11-30T11:56:50.323Z,7.50
2023-11-30T11:59:28.124Z,7.70
2023-11-30T12:01:57.125Z,7.90
2023-11-30T12:04:31.029Z,8.20
2023-11-30T12:06:59.097Z,7.90
2023-11-30T12:09:26.128Z,7.80
2023-11-30T12:11:55.536Z,7.80
2023-11-30T12:14:22.526Z,8.00
2023-11-30T12:16:49.451Z,7.70
2023-11-30T12:19:17.450Z,7.80
2023-11-30T12:21:45.035Z,7.80
2023-11-30T12:24:11.923Z,7.70
2023-11-30T12:26:38.818Z,7.80
2023-11-30T12:29:05.654Z,7.80
2023-11-30T12:31:32.560Z,7.60
2023-11-30T12:33:59.523Z,7.00
2023-11-30T12:36:26.421Z,6.50
2023-11-30T12:38:53.474Z,6.20
2023-11-30T12:41:20.376Z,5.60
2023-11-30T12:43:47.247Z,5.20
2023-11-30T12:46:14.126Z,4.40
2023-11-30T12:48:41.023Z,3.90
2023-11-30T12:51:08.472Z,3.50
2023-11-30T12:53:35.379Z,3.40
2023-11-30T12:56:02.280Z,3.20
2023-11-30T12:58:29.171Z,3.10
2023-11-30T13:00:56.084Z,3.10
2023-11-30T13:03:23.040Z,3.00
2023-11-30T13:05:49.956Z,3.00
2023-11-30T13:08:16.828Z,2.90
2023-11-30T13:10:43.709Z,2.70
2023-11-30T13:13:10.556Z,2.40
2023-11-30T13:15:38.363Z,2.10
2023-11-30T13:18:05.338Z,1.90
2023-11-30T13:20:32.244Z,1.60
2023-11-30T13:22:59.145Z,1.40
2023-11-30T13:25:26.029Z,1.40
2023-11-30T13:27:53.106Z,1.30
2023-11-30T13:30:20.021Z,1.10
2023-11-30T13:32:46.983Z,1.00
2023-11-30T13:35:13.950Z,0.80
2023-11-30T13:37:40.820Z,0.70
2023-11-30T13:40:08.271Z,0.60
2023-11-30T13:42:35.194Z,0.40
2023-11-30T13:45:02.515Z,0.40
2023-11-30T13:47:29.889Z,0.20
2023-11-30T13:49:56.791Z,0.10
2023-11-30T13:52:23.683Z,0.80
2023-11-30T13:54:50.580Z,-0.30
2023-11-30T13:57:17.465Z,-0.40
2023-11-30T13:59:44.461Z,-0.50
2023-11-30T14:02:11.336Z,-0.70
2023-11-30T14:04:38.458Z,-0.90
2023-11-30T14:07:05.531Z,-0.90
2023-11-30T14:09:32.425Z,-1.00
2023-11-30T14:11:59.282Z,-1.10
2023-11-30T14:14:26.227Z,-1.10
2023-11-30T14:16:53.106Z,-1.20
2023-11-30T14:19:19.991Z,-1.40
2023-11-30T14:21:46.933Z,-1.40
2023-11-30T14:24:13.926Z,-0.50
2023-11-30T14:26:40.912Z,-1.60
2023-11-30T14:29:07.837Z,-1.70
2023-11-30T14:31:34.788Z,-1.70
2023-11-30T14:34:01.948Z,-1.80
2023-11-30T14:36:28.985Z,-1.80
2023-11-30T14:38:55.874Z,-1.90
2023-11-30T14:41:22.811Z,-2.00
2023-11-30T14:43:49.714Z,-2.10
2023-11-30T14:46:16.610Z,-2.10
2023-11-30T14:48:43.579Z,-2.20
2023-11-30T14:51:12.363Z,-2.30
2023-11-30T14:53:39.865Z,-2.40
2023-11-30T14:56:07.968Z,-2.50
2023-11-30T14:58:34.845Z,-2.60
2023-11-30T15:01:01.940Z,-2.70
2023-11-30T15:03:28.938Z,-2.80
2023-11-30T15:05:55.914Z,-2.80
2023-11-30T15:08:22.768Z,-3.00
2023-11-30T15:10:49.973Z,-3.10
2023-11-30T15:13:16.957Z,-3.20
2023-11-30T15:15:43.870Z,-3.20
2023-11-30T15:18:10.774Z,-2.40
2023-11-30T15:20:37.688Z,-3.30
2023-11-30T15:23:04.579Z,-3.30
2023-11-30T15:25:31.485Z,-3.40
2023-11-30T15:27:58.407Z,-3.40
2023-11-30T15:30:25.345Z,-3.50
2023-11-30T15:32:52.249Z,-3.60
2023-11-30T15:35:19.172Z,-3.60
2023-11-30T15:37:46.010Z,-3.60
2023-11-30T15:40:12.958Z,-3.50
2023-11-30T15:42:40.137Z,-3.50
2023-11-30T15:45:10.479Z,-3.50
2023-11-30T15:47:39.809Z,-3.60
2023-11-30T15:50:07.284Z,-3.70
2023-11-30T15:52:34.220Z,-3.60
2023-11-30T15:55:01.107Z,-3.60
2023-11-30T15:57:28.047Z,-3.60
2023-11-30T15:59:54.963Z,-2.90
2023-11-30T16:02:22.051Z,-3.70
2023-11-30T16:04:49.229Z,-3.80
2023-11-30T16:07:16.098Z,-3.80
2023-11-30T16:09:43.040Z,-3.80
2023-11-30T16:12:09.917Z,-3.80
2023-11-30T16:14:36.827Z,-3.90
2023-11-30T16:17:03.922Z,-3.90
2023-11-30T16:19:30.839Z,-4.00
2023-11-30T16:21:57.774Z,-4.00
2023-11-30T16:24:24.700Z,-4.00
2023-11-30T16:26:54.001Z,-4.10
2023-11-30T16:29:20.987Z,-4.20
2023-11-30T16:31:48.631Z,-4.30
2023-11-30T16:34:15.532Z,-4.30
2023-11-30T16:36:42.596Z,-4.40
2023-11-30T16:39:09.490Z,-4.50
2023-11-30T16:41:36.383Z,-4.40
2023-11-30T16:44:03.256Z,-4.40
2023-11-30T16:46:30.171Z,-4.40
2023-11-30T16:48:58.307Z,-4.50
2023-11-30T16:51:26.347Z,-4.60
2023-11-30T16:53:53.538Z,-4.50
2023-11-30T16:56:24.675Z,-4.50
2023-11-30T16:58:52.521Z,-4.50
2023-11-30T17:01:20.223Z,-4.70
2023-11-30T17:03:47.530Z,-4.60
2023-11-30T17:06:15.244Z,-4.70
2023-11-30T17:08:42.217Z,-4.70
2023-11-30T17:11:09.148Z,-4.70
2023-11-30T17:13:36.024Z,-4.60
2023-11-30T17:16:04.167Z,-4.60
2023-11-30T17:18:32.332Z,-4.70
2023-11-30T17:20:59.913Z,-4.80
2023-11-30T17:23:27.297Z,-4.90
2023-11-30T17:25:54.479Z,-4.80
2023-11-30T17:28:21.339Z,-4.70
2023-11-30T17:30:48.254Z,-4.80
2023-11-30T17:33:15.274Z,-4.80
2023-11-30T17:35:42.332Z,-4.80
2023-11-30T17:38:09.362Z,-4.80
2023-11-30T17:40:36.238Z,-4.80
2023-11-30T17:43:03.117Z,-4.80
2023-11-30T17:45:30.035Z,-4.80
2023-11-30T17:47:57.128Z,-4.80
2023-11-30T17:50:24.152Z,-4.80
2023-11-30T17:52:50.988Z,-4.80
2023-11-30T17:55:19.371Z,-4.60
2023-11-30T17:57:47.337Z,-4.70
2023-11-30T18:00:14.703Z,-4.70
2023-11-30T18:02:41.579Z,-4.80
2023-11-30T18:05:08.944Z,-4.80
2023-11-30T18:07:35.832Z,-4.60
2023-11-30T18:10:02.868Z,-4.60
2023-11-30T18:12:29.835Z,-4.50
2023-11-30T18:14:56.730Z,-4.40
2023-11-30T18:17:23.652Z,-4.50
2023-11-30T18:19:50.482Z,-4.40
2023-11-30T18:22:17.367Z,-4.40
2023-11-30T18:24:44.293Z,-4.40
2023-11-30T18:27:11.177Z,-4.20
2023-11-30T18:29:38.215Z,-4.20
2023-11-30T18:32:05.360Z,-4.10
2023-11-30T18:34:32.255Z,-4.00
2023-11-30T18:36:59.144Z,-4.00
2023-11-30T18:39:26.072Z,-4.00
2023-11-30T18:41:53.112Z,-4.00
2023-11-30T18:44:20.027Z,-4.00
2023-11-30T18:46:47.436Z,-3.90
2023-11-30T18:49:14.300Z,-3.90
2023-11-30T18:51:41.246Z,-3.80
2023-11-30T18:54:08.131Z,-3.80
2023-11-30T18:56:35.028Z,-3.70
2023-11-30T18:59:01.884Z,-3.60
2023-11-30T19:01:29.409Z,-3.60
2023-11-30T19:03:56.365Z,-3.60
2023-11-30T19:06:23.306Z,-3.60
2023-11-30T19:08:50.334Z,-3.50
2023-11-30T19:11:17.677Z,-3.40
2023-11-30T19:13:44.980Z,-3.40
2023-11-30T19:16:21.405Z,-3.40
2023-11-30T19:18:49.013Z,-3.40
2023-11-30T19:21:16.867Z,-3.40
2023-11-30T19:23:43.801Z,-2.90
2023-11-30T19:26:10.662Z,-3.30
2023-11-30T19:28:38.012Z,-3.20
2023-11-30T19:31:05.708Z,-3.20
2023-11-30T19:33:33.395Z,-3.20
2023-11-30T19:36:00.678Z,-3.20
2023-11-30T19:38:27.537Z,-3.20
2023-11-30T19:40:55.791Z,-3.20
2023-11-30T19:43:24.202Z,-3.20
2023-11-30T19:45:51.774Z,-2.60
2023-11-30T19:48:18.990Z,-3.20
2023-11-30T19:50:45.893Z,-3.10
2023-11-30T19:53:12.846Z,-3.20
2023-11-30T19:55:39.695Z,-3.20
2023-11-30T19:58:06.571Z,-3.20
2023-11-30T20:00:33.541Z,-3.10
2023-11-30T20:03:00.472Z,-3.20
2023-11-30T20:05:27.354Z,-3.10
2023-11-30T20:07:54.335Z,-3.20
2023-11-30T20:10:21.170Z,-3.10
2023-11-30T20:12:48.101Z,-3.10
2023-11-30T20:15:15.068Z,-2.90
2023-11-30T20:17:41.916Z,-3.00
2023-11-30T20:20:09.590Z,-3.00
2023-11-30T20:22:36.444Z,-3.00
2023-11-30T20:25:03.451Z,-3.00
2023-11-30T20:27:30.465Z,-3.00
2023-11-30T20:29:57.337Z,-3.00
2023-11-30T20:32:25.585Z,-3.00
2023-11-30T20:34:53.001Z,-3.00
2023-11-30T20:37:19.878Z,-3.00
2023-11-30T20:39:47.458Z,-2.90
2023-11-30T20:42:14.420Z,-3.00
2023-11-30T20:44:41.282Z,-3.00
2023-11-30T20:47:08.412Z,-3.00
2023-11-30T20:49:35.299Z,-3.00
2023-11-30T20:52:02.185Z,-3.00
2023-11-30T20:54:29.134Z,-3.00
2023-11-30T20:56:56.007Z,-3.00
2023-11-30T20:59:22.868Z,-2.90
2023-11-30T21:01:49.901Z,-2.90
2023-11-30T21:04:16.973Z,-2.90
2023-11-30T21:06:43.881Z,-2.90
2023-11-30T21:09:10.772Z,-2.40
2023-11-30T21:11:40.653Z,-2.90
2023-11-30T21:14:07.523Z,-2.90
2023-11-30T21:16:34.395Z,-2.90
2023-11-30T21:19:01.325Z,-2.90
2023-11-30T21:21:28.227Z,-2.90
2023-11-30T21:23:55.080Z,-2.90
2023-11-30T21:26:22.021Z,-2.90
2023-11-30T21:28:48.912Z,-2.90
2023-11-30T21:31:15.905Z,-2.90
2023-11-30T21:33:42.964Z,-2.90
2023-11-30T21:36:15.249Z,-2.80
2023-11-30T21:38:42.285Z,-2.90
2023-11-30T21:41:09.131Z,-2.90
2023-11-30T21:43:36.010Z,-2.80
2023-11-30T21:46:02.931Z,-2.90
2023-11-30T21:48:29.885Z,-2.90
2023-11-30T21:50:56.785Z,-2.90
2023-11-30T21:53:23.683Z,-2.90
2023-11-30T21:55:50.598Z,-2.90
2023-11-30T21:58:17.584Z,-2.80
2023-11-30T22:00:44.559Z,-2.90
2023-11-30T22:03:12.683Z,-2.90
2023-11-30T22:05:40.666Z,-2.90
2023-11-30T22:08:07.589Z,-2.80
2023-11-30T22:10:34.461Z,-2.90
2023-11-30T22:13:01.373Z,-2.90
2023-11-30T22:15:28.277Z,-2.80
2023-11-30T22:17:55.272Z,-2.90
2023-11-30T22:20:22.839Z,-2.80
2023-11-30T22:22:49.679Z,-2.90
2023-11-30T22:25:16.527Z,-2.90
2023-11-30T22:27:43.632Z,-2.90
2023-11-30T22:30:11.303Z,-3.00
2023-11-30T22:32:38.214Z,-3.00
2023-11-30T22:35:05.534Z,-3.10
2023-11-30T22:37:32.485Z,-3.00
2023-11-30T22:39:59.395Z,-3.00
2023-11-30T22:42:28.467Z,-3.00
2023-11-30T22:44:56.080Z,-3.00
2023-11-30T22:47:22.943Z,-3.00
2023-11-30T22:49:49.824Z,-3.00
2023-11-30T22:52:16.876Z,-3.00
2023-11-30T22:54:43.967Z,-3.10
2023-11-30T22:57:10.873Z,-3.10
2023-11-30T22:59:37.784Z,-3.20
2023-11-30T23:02:05.197Z,-3.20
2023-11-30T23:04:32.809Z,-3.10
2023-11-30T23:06:59.955Z,-3.10
2023-11-30T23:09:26.843Z,-3.10
2023-11-30T23:11:53.706Z,-3.20
2023-11-30T23:14:20.639Z,-3.20
2023-11-30T23:16:47.609Z,-3.20
2023-11-30T23:19:14.542Z,-3.20
2023-11-30T23:21:41.517Z,-3.20
2023-11-30T23:24:08.906Z,-3.30
2023-11-30T23:26:36.312Z,-3.30
2023-11-30T23:29:03.163Z,-3.30
2023-11-30T23:31:30.138Z,-3.20
2023-11-30T23:33:57.058Z,-3.20
2023-11-30T23:36:24.156Z,-3.20
2023-11-30T23:38:51.013Z,-3.20
2023-11-30T23:41:17.936Z,-3.20
2023-11-30T23:43:44.847Z,-3.20
2023-11-30T23:46:11.821Z,-3.20
2023-11-30T23:48:38.892Z,-3.30
2023-11-30T23:51:06.324Z,-3.30
2023-11-30T23:53:33.277Z,-3.30
2023-11-30T23:56:00.188Z,-3.10
2023-11-30T23:58:27.091Z,-3.20
